sensor_id;sensor_type;location;lat;lon;timestamp;P1;durP1;ratioP1;P2;durP2;ratioP2
53879;SDS011;39791;53.184;5.486;2023-12-04T00:00:35;60.85;;;48.53;;
53879;SDS011;39791;53.184;5.486;2023-12-04T00:03:00;66.70;;;50.78;;
53879;SDS011;39791;53.184;5.486;2023-12-04T00:05:26;59.47;;;47.20;;
53879;SDS011;39791;53.184;5.486;2023-12-04T00:07:52;63.10;;;48.15;;
53879;SDS011;39791;53.184;5.486;2023-12-04T00:10:17;144.52;;;49.00;;
53879;SDS011;39791;53.184;5.486;2023-12-04T00:12:43;58.25;;;48.33;;
53879;SDS011;39791;53.184;5.486;2023-12-04T00:15:08;63.92;;;48.90;;
53879;SDS011;39791;53.184;5.486;2023-12-04T00:17:34;51.67;;;45.97;;
53879;SDS011;39791;53.184;5.486;2023-12-04T00:20:04;51.50;;;45.85;;
53879;SDS011;39791;53.184;5.486;2023-12-04T00:22:31;54.67;;;48.55;;
53879;SDS011;39791;53.184;5.486;2023-12-04T00:24:56;58.25;;;48.58;;
53879;SDS011;39791;53.184;5.486;2023-12-04T00:27:22;56.10;;;46.75;;
53879;SDS011;39791;53.184;5.486;2023-12-04T00:29:51;61.78;;;50.22;;
53879;SDS011;39791;53.184;5.486;2023-12-04T00:32:17;55.92;;;47.13;;
53879;SDS011;39791;53.184;5.486;2023-12-04T00:34:43;56.75;;;48.60;;
53879;SDS011;39791;53.184;5.486;2023-12-04T00:37:08;52.80;;;42.00;;
53879;SDS011;39791;53.184;5.486;2023-12-04T00:39:34;55.70;;;44.95;;
53879;SDS011;39791;53.184;5.486;2023-12-04T00:41:59;59.38;;;46.03;;
53879;SDS011;39791;53.184;5.486;2023-12-04T00:44:25;55.97;;;47.28;;
53879;SDS011;39791;53.184;5.486;2023-12-04T00:46:50;60.55;;;48.17;;
53879;SDS011;39791;53.184;5.486;2023-12-04T00:49:16;58.55;;;45.90;;
53879;SDS011;39791;53.184;5.486;2023-12-04T00:51:42;52.70;;;44.22;;
53879;SDS011;39791;53.184;5.486;2023-12-04T00:54:07;52.00;;;44.30;;
53879;SDS011;39791;53.184;5.486;2023-12-04T00:56:33;59.05;;;46.17;;
53879;SDS011;39791;53.184;5.486;2023-12-04T00:58:59;56.58;;;46.42;;
53879;SDS011;39791;53.184;5.486;2023-12-04T01:01:24;52.72;;;46.17;;
53879;SDS011;39791;53.184;5.486;2023-12-04T01:03:50;62.17;;;50.33;;
53879;SDS011;39791;53.184;5.486;2023-12-04T01:06:22;54.30;;;47.25;;
53879;SDS011;39791;53.184;5.486;2023-12-04T01:08:48;58.40;;;48.50;;
53879;SDS011;39791;53.184;5.486;2023-12-04T01:11:14;58.58;;;48.47;;
53879;SDS011;39791;53.184;5.486;2023-12-04T01:13:40;67.32;;;50.05;;
53879;SDS011;39791;53.184;5.486;2023-12-04T01:16:06;59.60;;;47.33;;
53879;SDS011;39791;53.184;5.486;2023-12-04T01:18:33;50.92;;;43.83;;
53879;SDS011;39791;53.184;5.486;2023-12-04T01:20:58;48.33;;;43.22;;
53879;SDS011;39791;53.184;5.486;2023-12-04T01:23:24;51.22;;;45.58;;
53879;SDS011;39791;53.184;5.486;2023-12-04T01:25:50;55.25;;;46.88;;
53879;SDS011;39791;53.184;5.486;2023-12-04T01:28:15;59.72;;;48.35;;
53879;SDS011;39791;53.184;5.486;2023-12-04T01:30:41;56.53;;;48.35;;
53879;SDS011;39791;53.184;5.486;2023-12-04T01:33:06;68.32;;;51.72;;
53879;SDS011;39791;53.184;5.486;2023-12-04T01:35:33;64.75;;;52.75;;
53879;SDS011;39791;53.184;5.486;2023-12-04T01:37:59;61.67;;;49.25;;
53879;SDS011;39791;53.184;5.486;2023-12-04T01:40:24;63.05;;;48.45;;
53879;SDS011;39791;53.184;5.486;2023-12-04T01:42:50;64.50;;;49.05;;
53879;SDS011;39791;53.184;5.486;2023-12-04T01:45:16;69.53;;;54.22;;
53879;SDS011;39791;53.184;5.486;2023-12-04T01:47:41;71.22;;;56.55;;
53879;SDS011;39791;53.184;5.486;2023-12-04T01:50:08;64.53;;;50.55;;
53879;SDS011;39791;53.184;5.486;2023-12-04T01:52:35;55.53;;;46.88;;
53879;SDS011;39791;53.184;5.486;2023-12-04T01:55:01;81.95;;;56.03;;
53879;SDS011;39791;53.184;5.486;2023-12-04T01:57:27;62.80;;;52.33;;
53879;SDS011;39791;53.184;5.486;2023-12-04T01:59:53;61.05;;;50.85;;
53879;SDS011;39791;53.184;5.486;2023-12-04T02:02:19;67.53;;;52.17;;
53879;SDS011;39791;53.184;5.486;2023-12-04T02:04:45;63.80;;;51.95;;
53879;SDS011;39791;53.184;5.486;2023-12-04T02:07:11;63.00;;;52.28;;
53879;SDS011;39791;53.184;5.486;2023-12-04T02:09:37;67.97;;;52.97;;
53879;SDS011;39791;53.184;5.486;2023-12-04T02:12:02;76.18;;;54.22;;
53879;SDS011;39791;53.184;5.486;2023-12-04T02:14:28;72.68;;;54.88;;
53879;SDS011;39791;53.184;5.486;2023-12-04T02:16:54;67.88;;;52.35;;
53879;SDS011;39791;53.184;5.486;2023-12-04T02:19:20;63.47;;;49.60;;
53879;SDS011;39791;53.184;5.486;2023-12-04T02:21:46;64.68;;;49.65;;
53879;SDS011;39791;53.184;5.486;2023-12-04T02:24:12;65.85;;;53.15;;
53879;SDS011;39791;53.184;5.486;2023-12-04T02:26:44;64.88;;;50.65;;
53879;SDS011;39791;53.184;5.486;2023-12-04T02:31:44;71.30;;;55.65;;
53879;SDS011;39791;53.184;5.486;2023-12-04T02:34:10;66.90;;;55.17;;
53879;SDS011;39791;53.184;5.486;2023-12-04T02:36:38;72.93;;;59.67;;
53879;SDS011;39791;53.184;5.486;2023-12-04T02:39:06;78.32;;;58.42;;
53879;SDS011;39791;53.184;5.486;2023-12-04T02:41:32;73.18;;;54.30;;
53879;SDS011;39791;53.184;5.486;2023-12-04T02:43:57;74.30;;;52.05;;
53879;SDS011;39791;53.184;5.486;2023-12-04T02:46:23;65.82;;;53.25;;
53879;SDS011;39791;53.184;5.486;2023-12-04T02:48:48;68.45;;;51.97;;
53879;SDS011;39791;53.184;5.486;2023-12-04T02:51:14;77.35;;;54.42;;
53879;SDS011;39791;53.184;5.486;2023-12-04T02:53:39;78.47;;;54.28;;
53879;SDS011;39791;53.184;5.486;2023-12-04T02:56:05;64.88;;;51.03;;
53879;SDS011;39791;53.184;5.486;2023-12-04T02:58:31;64.10;;;49.13;;
53879;SDS011;39791;53.184;5.486;2023-12-04T03:00:59;77.55;;;58.50;;
53879;SDS011;39791;53.184;5.486;2023-12-04T03:03:24;73.47;;;57.22;;
53879;SDS011;39791;53.184;5.486;2023-12-04T03:05:50;77.35;;;56.13;;
53879;SDS011;39791;53.184;5.486;2023-12-04T03:08:15;81.07;;;55.97;;
53879;SDS011;39791;53.184;5.486;2023-12-04T03:10:41;74.88;;;54.72;;
53879;SDS011;39791;53.184;5.486;2023-12-04T03:13:06;70.47;;;53.50;;
53879;SDS011;39791;53.184;5.486;2023-12-04T03:15:32;75.10;;;54.35;;
53879;SDS011;39791;53.184;5.486;2023-12-04T03:17:58;73.43;;;54.42;;
53879;SDS011;39791;53.184;5.486;2023-12-04T03:20:26;81.20;;;55.72;;
53879;SDS011;39791;53.184;5.486;2023-12-04T03:22:51;68.95;;;53.20;;
53879;SDS011;39791;53.184;5.486;2023-12-04T03:25:17;77.43;;;53.90;;
53879;SDS011;39791;53.184;5.486;2023-12-04T03:27:42;78.85;;;60.33;;
53879;SDS011;39791;53.184;5.486;2023-12-04T03:30:08;84.25;;;58.47;;
53879;SDS011;39791;53.184;5.486;2023-12-04T03:32:34;81.13;;;57.15;;
53879;SDS011;39791;53.184;5.486;2023-12-04T03:34:59;83.07;;;55.05;;
53879;SDS011;39791;53.184;5.486;2023-12-04T03:37:26;90.78;;;57.67;;
53879;SDS011;39791;53.184;5.486;2023-12-04T03:39:51;84.22;;;57.67;;
53879;SDS011;39791;53.184;5.486;2023-12-04T03:42:17;78.68;;;56.42;;
53879;SDS011;39791;53.184;5.486;2023-12-04T03:44:42;82.55;;;56.65;;
53879;SDS011;39791;53.184;5.486;2023-12-04T03:47:08;78.80;;;55.47;;
53879;SDS011;39791;53.184;5.486;2023-12-04T03:49:33;81.43;;;54.78;;
53879;SDS011;39791;53.184;5.486;2023-12-04T03:51:59;83.85;;;54.90;;
53879;SDS011;39791;53.184;5.486;2023-12-04T03:54:24;84.70;;;56.20;;
53879;SDS011;39791;53.184;5.486;2023-12-04T03:56:50;94.75;;;59.70;;
53879;SDS011;39791;53.184;5.486;2023-12-04T03:59:16;81.68;;;57.13;;
53879;SDS011;39791;53.184;5.486;2023-12-04T04:01:41;80.75;;;56.25;;
53879;SDS011;39791;53.184;5.486;2023-12-04T04:04:07;133.05;;;50.88;;
53879;SDS011;39791;53.184;5.486;2023-12-04T04:06:32;75.32;;;55.90;;
53879;SDS011;39791;53.184;5.486;2023-12-04T04:08:58;75.80;;;56.38;;
53879;SDS011;39791;53.184;5.486;2023-12-04T04:11:23;84.60;;;58.28;;
53879;SDS011;39791;53.184;5.486;2023-12-04T04:13:49;81.82;;;60.33;;
53879;SDS011;39791;53.184;5.486;2023-12-04T04:16:15;79.47;;;56.60;;
53879;SDS011;39791;53.184;5.486;2023-12-04T04:18:41;75.35;;;58.03;;
53879;SDS011;39791;53.184;5.486;2023-12-04T04:21:08;76.30;;;56.63;;
53879;SDS011;39791;53.184;5.486;2023-12-04T04:23:33;71.20;;;56.88;;
53879;SDS011;39791;53.184;5.486;2023-12-04T04:25:59;69.65;;;56.03;;
53879;SDS011;39791;53.184;5.486;2023-12-04T04:28:24;69.65;;;52.75;;
53879;SDS011;39791;53.184;5.486;2023-12-04T04:30:50;73.90;;;51.38;;
53879;SDS011;39791;53.184;5.486;2023-12-04T04:33:16;65.80;;;49.80;;
53879;SDS011;39791;53.184;5.486;2023-12-04T04:35:42;76.45;;;53.85;;
53879;SDS011;39791;53.184;5.486;2023-12-04T04:38:08;69.25;;;54.40;;
53879;SDS011;39791;53.184;5.486;2023-12-04T04:40:34;73.85;;;50.58;;
53879;SDS011;39791;53.184;5.486;2023-12-04T04:43:00;76.05;;;57.80;;
53879;SDS011;39791;53.184;5.486;2023-12-04T04:45:25;82.28;;;59.03;;
53879;SDS011;39791;53.184;5.486;2023-12-04T04:47:51;71.97;;;55.88;;
53879;SDS011;39791;53.184;5.486;2023-12-04T04:50:16;68.32;;;55.53;;
53879;SDS011;39791;53.184;5.486;2023-12-04T04:52:42;79.78;;;56.92;;
53879;SDS011;39791;53.184;5.486;2023-12-04T04:55:08;73.38;;;53.83;;
53879;SDS011;39791;53.184;5.486;2023-12-04T04:57:35;79.05;;;57.25;;
53879;SDS011;39791;53.184;5.486;2023-12-04T05:00:01;76.22;;;57.95;;
53879;SDS011;39791;53.184;5.486;2023-12-04T05:02:27;69.82;;;54.95;;
53879;SDS011;39791;53.184;5.486;2023-12-04T05:04:52;70.85;;;58.40;;
53879;SDS011;39791;53.184;5.486;2023-12-04T05:07:18;62.47;;;50.15;;
53879;SDS011;39791;53.184;5.486;2023-12-04T05:09:43;66.28;;;51.00;;
53879;SDS011;39791;53.184;5.486;2023-12-04T05:12:09;67.07;;;50.90;;
53879;SDS011;39791;53.184;5.486;2023-12-04T05:14:34;68.45;;;53.00;;
53879;SDS011;39791;53.184;5.486;2023-12-04T05:17:00;67.20;;;49.63;;
53879;SDS011;39791;53.184;5.486;2023-12-04T05:19:25;62.85;;;49.63;;
53879;SDS011;39791;53.184;5.486;2023-12-04T05:21:51;71.50;;;55.03;;
53879;SDS011;39791;53.184;5.486;2023-12-04T05:24:17;77.68;;;56.72;;
53879;SDS011;39791;53.184;5.486;2023-12-04T05:26:43;62.88;;;53.10;;
53879;SDS011;39791;53.184;5.486;2023-12-04T05:29:08;69.55;;;56.70;;
53879;SDS011;39791;53.184;5.486;2023-12-04T05:31:34;68.57;;;48.90;;
53879;SDS011;39791;53.184;5.486;2023-12-04T05:33:59;74.38;;;52.85;;
53879;SDS011;39791;53.184;5.486;2023-12-04T05:36:25;64.50;;;51.10;;
53879;SDS011;39791;53.184;5.486;2023-12-04T05:38:50;74.25;;;54.92;;
53879;SDS011;39791;53.184;5.486;2023-12-04T05:41:18;75.88;;;53.33;;
53879;SDS011;39791;53.184;5.486;2023-12-04T05:43:44;74.78;;;49.78;;
53879;SDS011;39791;53.184;5.486;2023-12-04T05:46:09;61.85;;;48.13;;
53879;SDS011;39791;53.184;5.486;2023-12-04T05:48:35;64.97;;;49.13;;
53879;SDS011;39791;53.184;5.486;2023-12-04T05:51:00;73.85;;;52.38;;
53879;SDS011;39791;53.184;5.486;2023-12-04T05:53:26;61.38;;;50.83;;
53879;SDS011;39791;53.184;5.486;2023-12-04T05:55:51;61.75;;;49.40;;
53879;SDS011;39791;53.184;5.486;2023-12-04T05:58:17;58.35;;;46.50;;
53879;SDS011;39791;53.184;5.486;2023-12-04T06:00:42;60.80;;;48.15;;
53879;SDS011;39791;53.184;5.486;2023-12-04T06:03:08;63.90;;;49.63;;
53879;SDS011;39791;53.184;5.486;2023-12-04T06:05:34;65.68;;;49.20;;
53879;SDS011;39791;53.184;5.486;2023-12-04T06:07:59;63.58;;;48.83;;
53879;SDS011;39791;53.184;5.486;2023-12-04T06:10:25;63.08;;;50.53;;
53879;SDS011;39791;53.184;5.486;2023-12-04T06:12:50;65.85;;;50.83;;
53879;SDS011;39791;53.184;5.486;2023-12-04T06:15:16;61.95;;;50.60;;
53879;SDS011;39791;53.184;5.486;2023-12-04T06:17:42;69.85;;;50.70;;
53879;SDS011;39791;53.184;5.486;2023-12-04T06:20:07;64.65;;;52.83;;
53879;SDS011;39791;53.184;5.486;2023-12-04T06:22:34;55.33;;;48.05;;
53879;SDS011;39791;53.184;5.486;2023-12-04T06:25:00;61.70;;;49.90;;
53879;SDS011;39791;53.184;5.486;2023-12-04T06:27:25;63.72;;;53.33;;
53879;SDS011;39791;53.184;5.486;2023-12-04T06:29:51;55.85;;;47.42;;
53879;SDS011;39791;53.184;5.486;2023-12-04T06:32:17;62.17;;;52.55;;
53879;SDS011;39791;53.184;5.486;2023-12-04T06:34:44;61.13;;;53.97;;
53879;SDS011;39791;53.184;5.486;2023-12-04T06:37:10;58.15;;;51.22;;
53879;SDS011;39791;53.184;5.486;2023-12-04T06:39:37;52.58;;;46.83;;
53879;SDS011;39791;53.184;5.486;2023-12-04T06:42:04;56.90;;;50.25;;
53879;SDS011;39791;53.184;5.486;2023-12-04T06:44:31;59.30;;;50.75;;
53879;SDS011;39791;53.184;5.486;2023-12-04T06:46:58;60.60;;;49.97;;
53879;SDS011;39791;53.184;5.486;2023-12-04T06:49:27;56.22;;;49.72;;
53879;SDS011;39791;53.184;5.486;2023-12-04T06:51:56;56.40;;;49.97;;
53879;SDS011;39791;53.184;5.486;2023-12-04T06:54:22;58.97;;;49.30;;
53879;SDS011;39791;53.184;5.486;2023-12-04T06:56:48;55.88;;;49.80;;
53879;SDS011;39791;53.184;5.486;2023-12-04T06:59:13;55.88;;;49.50;;
53879;SDS011;39791;53.184;5.486;2023-12-04T07:01:39;60.38;;;50.08;;
53879;SDS011;39791;53.184;5.486;2023-12-04T07:04:05;53.90;;;48.05;;
53879;SDS011;39791;53.184;5.486;2023-12-04T07:06:36;55.25;;;48.67;;
53879;SDS011;39791;53.184;5.486;2023-12-04T07:09:02;60.28;;;46.45;;
53879;SDS011;39791;53.184;5.486;2023-12-04T07:11:28;54.75;;;46.95;;
53879;SDS011;39791;53.184;5.486;2023-12-04T07:13:54;54.45;;;48.53;;
53879;SDS011;39791;53.184;5.486;2023-12-04T07:16:19;54.42;;;48.47;;
53879;SDS011;39791;53.184;5.486;2023-12-04T07:18:45;51.85;;;45.90;;
53879;SDS011;39791;53.184;5.486;2023-12-04T07:21:10;56.75;;;50.70;;
53879;SDS011;39791;53.184;5.486;2023-12-04T07:23:36;54.08;;;48.47;;
53879;SDS011;39791;53.184;5.486;2023-12-04T07:26:02;56.83;;;50.85;;
53879;SDS011;39791;53.184;5.486;2023-12-04T07:28:28;54.22;;;48.45;;
53879;SDS011;39791;53.184;5.486;2023-12-04T07:30:54;54.17;;;47.67;;
53879;SDS011;39791;53.184;5.486;2023-12-04T07:33:20;51.22;;;45.70;;
53879;SDS011;39791;53.184;5.486;2023-12-04T07:35:46;50.95;;;45.63;;
53879;SDS011;39791;53.184;5.486;2023-12-04T07:38:12;53.05;;;47.25;;
53879;SDS011;39791;53.184;5.486;2023-12-04T07:40:37;47.92;;;42.83;;
53879;SDS011;39791;53.184;5.486;2023-12-04T07:43:03;53.28;;;44.85;;
53879;SDS011;39791;53.184;5.486;2023-12-04T07:45:29;47.65;;;41.88;;
53879;SDS011;39791;53.184;5.486;2023-12-04T07:47:54;47.17;;;42.35;;
53879;SDS011;39791;53.184;5.486;2023-12-04T07:50:20;49.17;;;43.97;;
53879;SDS011;39791;53.184;5.486;2023-12-04T07:52:46;46.17;;;41.17;;
53879;SDS011;39791;53.184;5.486;2023-12-04T07:55:11;49.28;;;44.03;;
53879;SDS011;39791;53.184;5.486;2023-12-04T07:57:37;43.70;;;39.05;;
53879;SDS011;39791;53.184;5.486;2023-12-04T08:00:03;45.15;;;40.45;;
53879;SDS011;39791;53.184;5.486;2023-12-04T08:02:29;47.50;;;42.40;;
53879;SDS011;39791;53.184;5.486;2023-12-04T08:04:54;48.60;;;41.72;;
53879;SDS011;39791;53.184;5.486;2023-12-04T08:07:20;45.85;;;40.83;;
53879;SDS011;39791;53.184;5.486;2023-12-04T08:09:45;52.03;;;43.72;;
53879;SDS011;39791;53.184;5.486;2023-12-04T08:12:11;47.75;;;42.58;;
53879;SDS011;39791;53.184;5.486;2023-12-04T08:14:37;46.25;;;41.35;;
53879;SDS011;39791;53.184;5.486;2023-12-04T08:17:02;41.05;;;36.85;;
53879;SDS011;39791;53.184;5.486;2023-12-04T08:19:28;45.95;;;40.95;;
53879;SDS011;39791;53.184;5.486;2023-12-04T08:21:53;45.17;;;40.50;;
53879;SDS011;39791;53.184;5.486;2023-12-04T08:24:19;41.72;;;37.42;;
53879;SDS011;39791;53.184;5.486;2023-12-04T08:26:45;44.15;;;39.45;;
53879;SDS011;39791;53.184;5.486;2023-12-04T08:29:11;43.97;;;39.47;;
53879;SDS011;39791;53.184;5.486;2023-12-04T08:31:36;42.97;;;38.65;;
53879;SDS011;39791;53.184;5.486;2023-12-04T08:34:02;40.85;;;36.53;;
53879;SDS011;39791;53.184;5.486;2023-12-04T08:36:27;45.70;;;40.33;;
53879;SDS011;39791;53.184;5.486;2023-12-04T08:38:53;43.25;;;38.80;;
53879;SDS011;39791;53.184;5.486;2023-12-04T08:41:19;45.00;;;38.15;;
53879;SDS011;39791;53.184;5.486;2023-12-04T08:43:45;41.08;;;36.58;;
53879;SDS011;39791;53.184;5.486;2023-12-04T08:46:13;41.78;;;37.38;;
53879;SDS011;39791;53.184;5.486;2023-12-04T08:48:40;39.72;;;35.55;;
53879;SDS011;39791;53.184;5.486;2023-12-04T08:51:14;42.10;;;37.78;;
53879;SDS011;39791;53.184;5.486;2023-12-04T08:53:41;38.88;;;34.63;;
53879;SDS011;39791;53.184;5.486;2023-12-04T08:56:06;37.30;;;33.42;;
53879;SDS011;39791;53.184;5.486;2023-12-04T08:58:33;38.22;;;34.15;;
53879;SDS011;39791;53.184;5.486;2023-12-04T09:00:58;37.50;;;33.58;;
53879;SDS011;39791;53.184;5.486;2023-12-04T09:03:24;36.50;;;32.55;;
53879;SDS011;39791;53.184;5.486;2023-12-04T09:05:49;36.30;;;32.55;;
53879;SDS011;39791;53.184;5.486;2023-12-04T09:08:16;36.05;;;32.22;;
53879;SDS011;39791;53.184;5.486;2023-12-04T09:10:43;34.50;;;30.90;;
53879;SDS011;39791;53.184;5.486;2023-12-04T09:13:10;34.75;;;31.13;;
53879;SDS011;39791;53.184;5.486;2023-12-04T09:15:36;33.90;;;30.48;;
53879;SDS011;39791;53.184;5.486;2023-12-04T09:18:02;35.95;;;32.28;;
53879;SDS011;39791;53.184;5.486;2023-12-04T09:20:27;33.92;;;30.58;;
53879;SDS011;39791;53.184;5.486;2023-12-04T09:22:53;33.53;;;30.15;;
53879;SDS011;39791;53.184;5.486;2023-12-04T09:25:19;33.70;;;29.75;;
53879;SDS011;39791;53.184;5.486;2023-12-04T09:27:44;32.55;;;29.25;;
53879;SDS011;39791;53.184;5.486;2023-12-04T09:30:11;32.75;;;29.60;;
53879;SDS011;39791;53.184;5.486;2023-12-04T09:32:37;32.42;;;28.98;;
53879;SDS011;39791;53.184;5.486;2023-12-04T09:35:02;31.95;;;28.45;;
53879;SDS011;39791;53.184;5.486;2023-12-04T09:37:28;31.17;;;27.95;;
53879;SDS011;39791;53.184;5.486;2023-12-04T09:39:54;32.45;;;29.30;;
53879;SDS011;39791;53.184;5.486;2023-12-04T09:42:19;31.48;;;28.23;;
53879;SDS011;39791;53.184;5.486;2023-12-04T09:44:46;30.90;;;27.80;;
53879;SDS011;39791;53.184;5.486;2023-12-04T09:47:14;31.35;;;28.27;;
53879;SDS011;39791;53.184;5.486;2023-12-04T09:49:42;31.67;;;28.30;;
53879;SDS011;39791;53.184;5.486;2023-12-04T09:52:09;31.42;;;28.33;;
53879;SDS011;39791;53.184;5.486;2023-12-04T09:54:36;29.98;;;26.95;;
53879;SDS011;39791;53.184;5.486;2023-12-04T09:57:03;29.17;;;26.33;;
53879;SDS011;39791;53.184;5.486;2023-12-04T09:59:29;30.20;;;27.25;;
53879;SDS011;39791;53.184;5.486;2023-12-04T10:01:55;30.85;;;27.70;;
53879;SDS011;39791;53.184;5.486;2023-12-04T10:04:22;31.35;;;28.35;;
53879;SDS011;39791;53.184;5.486;2023-12-04T10:06:49;30.50;;;27.67;;
53879;SDS011;39791;53.184;5.486;2023-12-04T10:09:17;29.25;;;26.25;;
53879;SDS011;39791;53.184;5.486;2023-12-04T10:11:44;32.90;;;29.67;;
53879;SDS011;39791;53.184;5.486;2023-12-04T10:14:28;29.67;;;26.98;;
53879;SDS011;39791;53.184;5.486;2023-12-04T10:16:55;29.55;;;26.75;;
53879;SDS011;39791;53.184;5.486;2023-12-04T10:19:24;29.92;;;26.88;;
53879;SDS011;39791;53.184;5.486;2023-12-04T10:21:51;31.65;;;28.55;;
53879;SDS011;39791;53.184;5.486;2023-12-04T10:24:31;33.85;;;30.42;;
53879;SDS011;39791;53.184;5.486;2023-12-04T10:27:04;30.25;;;27.10;;
53879;SDS011;39791;53.184;5.486;2023-12-04T10:29:42;30.60;;;27.60;;
53879;SDS011;39791;53.184;5.486;2023-12-04T10:32:07;29.48;;;26.42;;
53879;SDS011;39791;53.184;5.486;2023-12-04T10:34:33;28.40;;;25.50;;
53879;SDS011;39791;53.184;5.486;2023-12-04T10:36:59;31.13;;;27.98;;
53879;SDS011;39791;53.184;5.486;2023-12-04T10:39:25;28.83;;;26.10;;
53879;SDS011;39791;53.184;5.486;2023-12-04T10:42:02;29.55;;;26.75;;
53879;SDS011;39791;53.184;5.486;2023-12-04T10:44:31;29.13;;;26.40;;
53879;SDS011;39791;53.184;5.486;2023-12-04T10:46:57;29.20;;;26.40;;
53879;SDS011;39791;53.184;5.486;2023-12-04T10:49:26;29.30;;;26.60;;
53879;SDS011;39791;53.184;5.486;2023-12-04T10:51:56;27.55;;;24.95;;
53879;SDS011;39791;53.184;5.486;2023-12-04T10:54:25;28.05;;;25.35;;
53879;SDS011;39791;53.184;5.486;2023-12-04T10:56:51;28.90;;;26.17;;
53879;SDS011;39791;53.184;5.486;2023-12-04T10:59:18;28.55;;;25.85;;
53879;SDS011;39791;53.184;5.486;2023-12-04T11:01:48;27.50;;;25.00;;
53879;SDS011;39791;53.184;5.486;2023-12-04T11:04:16;28.50;;;25.80;;
53879;SDS011;39791;53.184;5.486;2023-12-04T11:06:43;28.15;;;25.58;;
53879;SDS011;39791;53.184;5.486;2023-12-04T11:09:12;28.25;;;25.60;;
53879;SDS011;39791;53.184;5.486;2023-12-04T11:11:39;27.73;;;24.95;;
53879;SDS011;39791;53.184;5.486;2023-12-04T11:14:08;28.45;;;25.80;;
53879;SDS011;39791;53.184;5.486;2023-12-04T11:16:51;27.85;;;25.15;;
53879;SDS011;39791;53.184;5.486;2023-12-04T11:19:23;28.75;;;26.05;;
53879;SDS011;39791;53.184;5.486;2023-12-04T11:21:56;27.95;;;25.25;;
53879;SDS011;39791;53.184;5.486;2023-12-04T11:24:23;26.65;;;24.25;;
53879;SDS011;39791;53.184;5.486;2023-12-04T11:26:49;28.70;;;25.73;;
53879;SDS011;39791;53.184;5.486;2023-12-04T11:29:15;29.10;;;26.45;;
53879;SDS011;39791;53.184;5.486;2023-12-04T11:31:42;29.50;;;24.60;;
53879;SDS011;39791;53.184;5.486;2023-12-04T11:34:08;26.73;;;24.30;;
53879;SDS011;39791;53.184;5.486;2023-12-04T11:36:37;29.23;;;26.33;;
53879;SDS011;39791;53.184;5.486;2023-12-04T11:39:03;27.33;;;24.65;;
53879;SDS011;39791;53.184;5.486;2023-12-04T11:41:37;26.50;;;23.95;;
53879;SDS011;39791;53.184;5.486;2023-12-04T11:44:02;28.00;;;25.40;;
53879;SDS011;39791;53.184;5.486;2023-12-04T11:46:29;28.08;;;24.73;;
53879;SDS011;39791;53.184;5.486;2023-12-04T11:48:57;28.13;;;25.52;;
53879;SDS011;39791;53.184;5.486;2023-12-04T11:51:53;26.13;;;23.73;;
53879;SDS011;39791;53.184;5.486;2023-12-04T11:54:20;25.58;;;23.02;;
53879;SDS011;39791;53.184;5.486;2023-12-04T11:56:56;27.98;;;25.02;;
53879;SDS011;39791;53.184;5.486;2023-12-04T11:59:24;27.67;;;24.98;;
53879;SDS011;39791;53.184;5.486;2023-12-04T12:01:50;25.90;;;23.48;;
53879;SDS011;39791;53.184;5.486;2023-12-04T12:04:17;26.77;;;24.27;;
53879;SDS011;39791;53.184;5.486;2023-12-04T12:06:43;27.63;;;25.05;;
53879;SDS011;39791;53.184;5.486;2023-12-04T12:09:09;26.02;;;23.52;;
53879;SDS011;39791;53.184;5.486;2023-12-04T12:11:34;26.65;;;24.15;;
53879;SDS011;39791;53.184;5.486;2023-12-04T12:14:01;26.52;;;24.02;;
53879;SDS011;39791;53.184;5.486;2023-12-04T12:16:26;26.95;;;24.42;;
53879;SDS011;39791;53.184;5.486;2023-12-04T12:18:52;32.00;;;29.08;;
53879;SDS011;39791;53.184;5.486;2023-12-04T12:21:18;32.10;;;28.83;;
53879;SDS011;39791;53.184;5.486;2023-12-04T12:23:44;29.88;;;26.88;;
53879;SDS011;39791;53.184;5.486;2023-12-04T12:26:09;29.35;;;26.55;;
53879;SDS011;39791;53.184;5.486;2023-12-04T12:28:36;27.88;;;25.38;;
53879;SDS011;39791;53.184;5.486;2023-12-04T12:31:02;26.73;;;24.23;;
53879;SDS011;39791;53.184;5.486;2023-12-04T12:33:28;28.55;;;25.63;;
53879;SDS011;39791;53.184;5.486;2023-12-04T12:35:54;28.77;;;26.08;;
53879;SDS011;39791;53.184;5.486;2023-12-04T12:38:21;35.70;;;32.28;;
53879;SDS011;39791;53.184;5.486;2023-12-04T12:40:46;29.60;;;26.63;;
53879;SDS011;39791;53.184;5.486;2023-12-04T12:43:12;28.52;;;25.73;;
53879;SDS011;39791;53.184;5.486;2023-12-04T12:45:41;27.83;;;25.05;;
53879;SDS011;39791;53.184;5.486;2023-12-04T12:48:14;27.02;;;24.27;;
53879;SDS011;39791;53.184;5.486;2023-12-04T12:50:44;27.13;;;24.63;;
53879;SDS011;39791;53.184;5.486;2023-12-04T12:53:11;26.40;;;23.88;;
53879;SDS011;39791;53.184;5.486;2023-12-04T12:55:38;27.10;;;23.27;;
53879;SDS011;39791;53.184;5.486;2023-12-04T12:58:05;25.02;;;22.73;;
53879;SDS011;39791;53.184;5.486;2023-12-04T13:00:32;27.77;;;25.08;;
53879;SDS011;39791;53.184;5.486;2023-12-04T13:02:59;25.23;;;22.92;;
53879;SDS011;39791;53.184;5.486;2023-12-04T13:05:26;26.38;;;23.95;;
53879;SDS011;39791;53.184;5.486;2023-12-04T13:07:51;23.08;;;21.02;;
53879;SDS011;39791;53.184;5.486;2023-12-04T13:10:17;29.17;;;26.48;;
53879;SDS011;39791;53.184;5.486;2023-12-04T13:12:43;29.48;;;26.67;;
53879;SDS011;39791;53.184;5.486;2023-12-04T13:15:08;28.90;;;26.30;;
53879;SDS011;39791;53.184;5.486;2023-12-04T13:17:35;29.75;;;26.65;;
53879;SDS011;39791;53.184;5.486;2023-12-04T13:20:01;24.88;;;22.50;;
53879;SDS011;39791;53.184;5.486;2023-12-04T13:22:29;24.52;;;22.08;;
53879;SDS011;39791;53.184;5.486;2023-12-04T13:24:55;26.45;;;23.98;;
53879;SDS011;39791;53.184;5.486;2023-12-04T13:27:20;27.80;;;25.02;;
53879;SDS011;39791;53.184;5.486;2023-12-04T13:29:46;34.47;;;31.15;;
53879;SDS011;39791;53.184;5.486;2023-12-04T13:32:15;27.73;;;25.15;;
53879;SDS011;39791;53.184;5.486;2023-12-04T13:34:41;27.13;;;24.35;;
53879;SDS011;39791;53.184;5.486;2023-12-04T13:37:07;25.95;;;23.55;;
53879;SDS011;39791;53.184;5.486;2023-12-04T13:39:33;25.65;;;23.30;;
53879;SDS011;39791;53.184;5.486;2023-12-04T13:42:16;26.13;;;23.67;;
53879;SDS011;39791;53.184;5.486;2023-12-04T13:45:01;26.33;;;23.77;;
53879;SDS011;39791;53.184;5.486;2023-12-04T13:47:27;24.60;;;22.27;;
53879;SDS011;39791;53.184;5.486;2023-12-04T13:49:52;25.65;;;23.05;;
53879;SDS011;39791;53.184;5.486;2023-12-04T13:52:20;26.35;;;23.88;;
53879;SDS011;39791;53.184;5.486;2023-12-04T13:54:48;25.83;;;23.50;;
53879;SDS011;39791;53.184;5.486;2023-12-04T13:57:14;26.02;;;23.63;;
53879;SDS011;39791;53.184;5.486;2023-12-04T13:59:47;28.67;;;25.90;;
53879;SDS011;39791;53.184;5.486;2023-12-04T14:02:12;30.20;;;27.40;;
53879;SDS011;39791;53.184;5.486;2023-12-04T14:04:39;27.75;;;25.13;;
53879;SDS011;39791;53.184;5.486;2023-12-04T14:07:05;29.13;;;26.02;;
53879;SDS011;39791;53.184;5.486;2023-12-04T14:09:33;27.00;;;24.50;;
53879;SDS011;39791;53.184;5.486;2023-12-04T14:12:00;27.30;;;24.80;;
53879;SDS011;39791;53.184;5.486;2023-12-04T14:14:25;27.17;;;24.50;;
53879;SDS011;39791;53.184;5.486;2023-12-04T14:16:51;27.85;;;25.30;;
53879;SDS011;39791;53.184;5.486;2023-12-04T14:19:17;28.20;;;25.67;;